Time;durP1;ratioP1;P1;durP2;ratioP2;P2;SDS_P1;SDS_P2;PMS_P1;PMS_P2;Temp;Humidity;BMP_temperature;BMP_pressure;BME280_temperature;BME280_humidity;BME280_pressure;Samples;Min_cycle;Max_cycle;Signal;HPM_P1;HPM_P2
2023/07/30 00:01:50;;;;;;;2.55;1.48;;;;;;;21.98;100.00;99915.22;5586354;31;33623;-69
2023/07/30 00:04:54;;;;;;;7.40;1.77;;;;;;;21.95;100.00;99913.06;5586417;31;33561;-69
2023/07/30 00:07:56;;;;;;;1.92;1.50;;;;;;;21.91;100.00;99912.72;5587213;31;33720;-69
2023/07/30 00:10:59;;;;;;;3.37;1.75;;;;;;;21.91;100.00;99912.72;5587694;31;33692;-69
2023/07/30 00:14:02;;;;;;;3.70;1.60;;;;;;;21.88;100.00;99915.13;5587716;31;33436;-69
2023/07/30 00:17:05;;;;;;;3.17;1.73;;;;;;;21.94;100.00;99911.41;5588580;31;33663;-69
2023/07/30 00:20:08;;;;;;;2.33;1.75;;;;;;;21.86;100.00;99917.25;5588616;31;33758;-69
2023/07/30 00:23:11;;;;;;;2.78;1.60;;;;;;;21.78;100.00;99926.63;5587604;31;33485;-69
2023/07/30 00:26:14;;;;;;;3.42;1.65;;;;;;;21.76;100.00;99922.53;5588497;31;33602;-69
2023/07/30 00:29:17;;;;;;;3.12;1.67;;;;;;;21.78;100.00;99931.19;5589254;31;34497;-69
2023/07/30 00:32:20;;;;;;;3.28;1.60;;;;;;;21.77;100.00;99918.75;5608028;31;34351;-69
2023/07/30 00:35:24;;;;;;;1.77;1.30;;;;;;;21.80;100.00;99919.06;5608066;31;33739;-69
2023/07/30 00:38:27;;;;;;;1.95;1.35;;;;;;;21.92;100.00;99918.94;5608453;31;33166;-69
2023/07/30 00:41:31;;;;;;;2.33;1.52;;;;;;;22.09;100.00;99922.38;5608049;31;34861;-69
2023/07/30 00:44:34;;;;;;;2.00;1.77;;;;;;;22.15;100.00;99915.16;5607835;31;34502;-69
2023/07/30 00:47:38;;;;;;;2.58;1.30;;;;;;;22.17;100.00;99913.03;5607096;31;34504;-70
2023/07/30 00:50:41;;;;;;;4.40;1.40;;;;;;;22.31;100.00;99912.38;5607070;31;33754;-69
2023/07/30 00:53:44;;;;;;;2.30;1.40;;;;;;;22.45;100.00;99904.66;5607926;31;34224;-68
2023/07/30 00:56:52;;;;;;;2.25;1.65;;;;;;;22.45;100.00;99902.75;5608278;31;34506;-69
2023/07/30 00:59:56;;;;;;;3.45;1.55;;;;;;;22.37;100.00;99903.22;5607862;31;33834;-70
2023/07/30 01:02:59;;;;;;;2.20;1.60;;;;;;;22.32;100.00;99895.06;5607981;31;34394;-69
2023/07/30 01:06:03;;;;;;;2.70;1.75;;;;;;;22.22;100.00;99891.47;5606952;31;33674;-70
2023/07/30 01:09:05;;;;;;;2.03;1.50;;;;;;;22.24;100.00;99890.12;5606926;31;33747;-69
2023/07/30 01:12:09;;;;;;;2.58;1.50;;;;;;;22.18;100.00;99887.63;5607876;31;33629;-69
2023/07/30 01:15:12;;;;;;;3.15;1.75;;;;;;;22.14;100.00;99890.03;5607671;31;34450;-69
2023/07/30 01:18:15;;;;;;;4.62;1.52;;;;;;;22.08;100.00;99891.03;5607638;31;34565;-69
2023/07/30 01:21:18;;;;;;;2.40;1.50;;;;;;;22.05;100.00;99886.16;5606937;31;33842;-69
2023/07/30 01:24:21;;;;;;;2.00;1.40;;;;;;;22.08;100.00;99888.34;5607570;31;33707;-69
2023/07/30 01:27:29;;;;;;;3.50;1.52;;;;;;;22.09;100.00;99885.38;5607745;31;33663;-69
2023/07/30 01:30:42;;;;;;;2.42;1.67;;;;;;;22.05;100.00;99872.66;5607584;31;33769;-68
2023/07/30 01:33:52;;;;;;;1.87;1.50;;;;;;;22.05;100.00;99875.34;5607642;31;33470;-69
2023/07/30 01:36:57;;;;;;;1.85;1.40;;;;;;;21.97;100.00;99863.13;5596416;31;34239;-69
2023/07/30 01:40:00;;;;;;;4.07;1.65;;;;;;;21.92;100.00;99849.53;5606672;31;33984;-69
2023/07/30 01:43:03;;;;;;;6.85;1.65;;;;;;;21.90;100.00;99843.56;5607363;31;34707;-70
2023/07/30 01:46:05;;;;;;;5.07;1.50;;;;;;;21.89;100.00;99846.50;5607396;31;33782;-70
2023/07/30 01:49:08;;;;;;;4.60;1.73;;;;;;;21.90;100.00;99850.84;5607727;31;33449;-69
2023/07/30 01:52:11;;;;;;;5.78;1.80;;;;;;;21.89;100.00;99852.72;5607434;31;33589;-70
2023/07/30 01:55:14;;;;;;;1.87;1.62;;;;;;;22.02;100.00;99855.06;5607639;31;33679;-69
2023/07/30 01:58:16;;;;;;;2.65;1.62;;;;;;;21.97;100.00;99859.59;5606575;31;33482;-69
2023/07/30 02:01:20;;;;;;;3.20;1.30;;;;;;;21.87;100.00;99843.25;5607291;31;34413;-69
2023/07/30 02:04:22;;;;;;;3.17;1.62;;;;;;;21.85;100.00;99856.19;5604962;31;33731;-69
2023/07/30 02:07:25;;;;;;;3.72;1.92;;;;;;;21.79;100.00;99857.19;5587602;31;33639;-69
2023/07/30 02:10:29;;;;;;;2.58;1.60;;;;;;;21.72;100.00;99846.63;5587881;31;33489;-70
2023/07/30 02:13:32;;;;;;;3.33;1.67;;;;;;;21.67;100.00;99849.25;5587585;31;33654;-69
2023/07/30 02:16:35;;;;;;;3.03;1.70;;;;;;;21.59;100.00;99850.50;5587503;31;33757;-68
2023/07/30 02:19:38;;;;;;;2.45;1.70;;;;;;;21.54;100.00;99853.12;5587394;31;34524;-70
2023/07/30 02:22:40;;;;;;;2.87;1.70;;;;;;;21.51;100.00;99842.88;5586485;31;34477;-70
2023/07/30 02:25:43;;;;;;;2.35;1.73;;;;;;;21.49;100.00;99850.41;5587317;31;34521;-69
2023/07/30 02:28:46;;;;;;;3.45;1.77;;;;;;;21.53;100.00;99858.81;5587150;31;34787;-69
2023/07/30 02:31:49;;;;;;;2.67;1.50;;;;;;;21.46;100.00;99853.59;5587379;31;34264;-69
2023/07/30 02:34:51;;;;;;;2.00;1.50;;;;;;;21.43;100.00;99862.19;5586502;31;33533;-69
2023/07/30 02:37:54;;;;;;;2.00;1.55;;;;;;;21.42;100.00;99851.66;5587462;31;33733;-69
2023/07/30 02:40:57;;;;;;;1.98;1.70;;;;;;;21.42;100.00;99851.66;5586693;31;34186;-69
2023/07/30 02:43:59;;;;;;;4.07;1.70;;;;;;;21.40;100.00;99856.47;5587416;31;33721;-69
2023/07/30 02:47:02;;;;;;;2.12;1.70;;;;;;;21.33;100.00;99859.38;5587234;31;33818;-69
2023/07/30 02:50:06;;;;;;;2.20;1.73;;;;;;;21.29;100.00;99863.66;5587263;31;34717;-69
2023/07/30 02:53:08;;;;;;;2.40;1.77;;;;;;;21.28;100.00;99878.19;5587171;31;33881;-69
2023/07/30 02:56:11;;;;;;;2.58;1.70;;;;;;;21.27;100.00;99878.44;5587089;31;33884;-69
2023/07/30 02:59:14;;;;;;;3.47;1.73;;;;;;;21.23;100.00;99876.25;5587103;31;34541;-69
2023/07/30 03:02:17;;;;;;;2.85;1.95;;;;;;;21.23;100.00;99870.03;5587097;31;33550;-69
2023/07/30 03:05:19;;;;;;;2.35;1.60;;;;;;;21.15;100.00;99867.78;5587083;31;34856;-69
2023/07/30 03:08:22;;;;;;;3.15;1.50;;;;;;;21.09;100.00;99872.25;5586989;31;33972;-68
2023/07/30 03:11:25;;;;;;;4.50;1.83;;;;;;;21.03;100.00;99877.81;5586022;31;34550;-68
2023/07/30 03:14:29;;;;;;;1.98;1.50;;;;;;;20.91;100.00;99872.53;5586941;31;33401;-69
2023/07/30 03:17:32;;;;;;;2.65;1.73;;;;;;;20.81;100.00;99875.06;5586850;31;33904;-69
2023/07/30 03:20:35;;;;;;;3.70;1.70;;;;;;;20.69;100.00;99864.37;5586837;31;34772;-69
2023/07/30 03:23:38;;;;;;;3.30;1.90;;;;;;;20.66;100.00;99866.75;5586777;31;33811;-69
2023/07/30 03:26:41;;;;;;;3.67;1.85;;;;;;;20.73;100.00;99873.59;5586770;31;34394;-69
2023/07/30 03:29:43;;;;;;;6.35;2.00;;;;;;;20.73;100.00;99859.28;5589093;31;34450;-69
2023/07/30 03:32:46;;;;;;;5.57;1.85;;;;;;;20.82;100.00;99865.91;5594159;31;33838;-69
2023/07/30 03:35:49;;;;;;;4.35;2.20;;;;;;;20.86;100.00;99863.56;5586457;31;33700;-68
2023/07/30 03:38:51;;;;;;;2.95;1.80;;;;;;;20.83;100.00;99870.22;5586596;31;34190;-68
2023/07/30 03:41:54;;;;;;;3.40;1.80;;;;;;;20.88;100.00;99873.00;5586332;31;33844;-68
2023/07/30 03:44:57;;;;;;;4.05;2.03;;;;;;;20.93;100.00;99869.56;5586278;31;33852;-68
2023/07/30 03:48:00;;;;;;;3.50;1.80;;;;;;;21.02;100.00;99876.16;5586634;31;33486;-69
2023/07/30 03:51:03;;;;;;;2.22;1.75;;;;;;;21.22;100.00;99880.00;5586632;31;33836;-69
2023/07/30 03:54:05;;;;;;;5.80;1.90;;;;;;;21.35;100.00;99878.03;5586649;31;33818;-69
2023/07/30 03:57:08;;;;;;;7.57;1.80;;;;;;;21.35;100.00;99878.81;5586342;31;33658;-68
2023/07/30 04:00:11;;;;;;;2.53;1.77;;;;;;;21.44;100.00;99876.53;5591607;31;33625;-68
2023/07/30 04:03:15;;;;;;;4.05;1.77;;;;;;;21.50;100.00;99883.59;5605987;31;33884;-69
2023/07/30 04:06:18;;;;;;;2.75;1.83;;;;;;;21.57;100.00;99884.22;5604911;31;33694;-69
2023/07/30 04:09:21;;;;;;;2.70;1.83;;;;;;;21.51;100.00;99886.03;5605713;31;33828;-69
2023/07/30 04:12:24;;;;;;;2.53;1.85;;;;;;;21.57;100.00;99892.31;5605091;31;33530;-69
2023/07/30 04:15:27;;;;;;;3.83;1.70;;;;;;;21.63;100.00;99896.72;5606152;31;34242;-69
2023/07/30 04:18:30;;;;;;;3.92;1.95;;;;;;;21.78;100.00;99896.09;5605730;31;34585;-69
2023/07/30 04:21:32;;;;;;;2.95;1.80;;;;;;;21.82;100.00;99892.63;5605656;31;34431;-69
2023/07/30 04:24:35;;;;;;;3.42;2.10;;;;;;;21.83;100.00;99888.06;5605626;31;33597;-70
2023/07/30 04:27:40;;;;;;;2.90;1.80;;;;;;;21.83;100.00;99898.84;5605549;31;33708;-69
2023/07/30 04:30:43;;;;;;;5.28;1.83;;;;;;;21.84;100.00;99898.59;5605441;31;33652;-69
2023/07/30 04:33:46;;;;;;;2.42;1.80;;;;;;;21.77;100.00;99903.38;5605471;31;34301;-68
2023/07/30 04:36:51;;;;;;;3.70;1.80;;;;;;;21.91;100.00;99901.09;5604256;31;33704;-68
2023/07/30 04:39:55;;;;;;;1.85;1.58;;;;;;;21.91;100.00;99895.69;5605323;31;33529;-69
2023/07/30 04:42:58;;;;;;;2.83;1.73;;;;;;;22.00;100.00;99905.81;5604281;31;33707;-68
2023/07/30 04:46:01;;;;;;;2.95;1.83;;;;;;;22.05;100.00;99897.78;5605285;31;31963;-68
2023/07/30 04:49:04;;;;;;;2.97;1.70;;;;;;;22.06;100.00;99909.41;5605027;31;33701;-67
2023/07/30 04:52:08;;;;;;;4.25;1.80;;;;;;;21.98;100.00;99899.03;5604689;31;34824;-68
2023/07/30 04:55:10;;;;;;;4.80;1.80;;;;;;;22.09;100.00;99903.47;5606422;31;33831;-68
2023/07/30 04:58:13;;;;;;;3.25;1.70;;;;;;;22.14;100.00;99905.41;5607035;31;34827;-68
2023/07/30 05:01:16;;;;;;;3.33;1.73;;;;;;;22.16;100.00;99906.00;5601220;31;34801;-68
2023/07/30 05:04:19;;;;;;;2.50;1.70;;;;;;;22.27;100.00;99915.84;5587136;31;33725;-69
2023/07/30 05:07:21;;;;;;;4.18;1.65;;;;;;;22.19;100.00;99918.97;5587059;31;33505;-68
2023/07/30 05:10:24;;;;;;;2.30;1.80;;;;;;;22.18;100.00;99917.34;5587012;31;33825;-69
2023/07/30 05:13:27;;;;;;;4.32;2.08;;;;;;;22.32;100.00;99922.09;5587114;31;33674;-69
2023/07/30 05:16:29;;;;;;;2.55;1.87;;;;;;;22.32;100.00;99921.25;5587822;31;34376;-70
2023/07/30 05:19:33;;;;;;;2.83;1.77;;;;;;;22.44;100.00;99916.53;5588000;31;33448;-70
2023/07/30 05:22:35;;;;;;;2.92;1.85;;;;;;;22.56;100.00;99916.38;5587866;31;33498;-69
2023/07/30 05:25:38;;;;;;;3.45;1.90;;;;;;;22.35;100.00;99913.47;5587866;31;33802;-69
2023/07/30 05:28:41;;;;;;;2.62;1.87;;;;;;;22.41;100.00;99917.06;5587598;31;34759;-69
2023/07/30 05:31:43;;;;;;;3.47;2.10;;;;;;;22.67;100.00;99929.69;5587884;31;34794;-69
2023/07/30 05:34:46;;;;;;;2.00;1.75;;;;;;;22.81;100.00;99920.09;5587460;31;33805;-69
2023/07/30 05:37:49;;;;;;;3.85;2.00;;;;;;;22.86;100.00;99922.03;5587411;31;33829;-69
2023/07/30 05:40:52;;;;;;;3.58;1.87;;;;;;;22.68;100.00;99917.81;5589057;31;33553;-69
2023/07/30 05:43:54;;;;;;;2.00;1.80;;;;;;;22.78;100.00;99920.62;5607069;31;33590;-69
2023/07/30 05:46:57;;;;;;;3.17;1.77;;;;;;;22.69;100.00;99907.81;5607260;31;34259;-69
2023/07/30 05:50:01;;;;;;;3.28;1.90;;;;;;;22.68;100.00;99912.41;5607228;31;33918;-69
2023/07/30 05:53:04;;;;;;;5.78;2.10;;;;;;;22.87;100.00;99919.09;5607202;31;33830;-69
2023/07/30 05:56:07;;;;;;;2.50;2.10;;;;;;;22.94;100.00;99916.97;5606640;31;34622;-68
2023/07/30 05:59:09;;;;;;;4.40;2.03;;;;;;;22.85;100.00;99923.94;5606341;31;34697;-68
2023/07/30 06:02:12;;;;;;;2.62;1.98;;;;;;;23.01;100.00;99919.44;5602639;31;32153;-69
2023/07/30 06:05:15;;;;;;;3.08;1.87;;;;;;;22.94;100.00;99916.97;5586831;31;33606;-70
2023/07/30 06:08:18;;;;;;;2.90;1.87;;;;;;;22.87;100.00;99918.25;5586611;31;34575;-70
2023/07/30 06:11:21;;;;;;;3.80;1.83;;;;;;;23.27;100.00;99917.72;5587513;31;34812;-69
2023/07/30 06:14:25;;;;;;;2.30;1.83;;;;;;;23.18;100.00;99924.72;5586914;31;33541;-69
2023/07/30 06:17:28;;;;;;;3.95;2.20;;;;;;;23.26;100.00;99916.09;5587385;31;33833;-69
2023/07/30 06:20:34;;;;;;;4.80;1.70;;;;;;;23.24;100.00;99926.34;5587409;31;33985;-69
2023/07/30 06:23:37;;;;;;;3.92;2.20;;;;;;;23.57;100.00;99923.34;5587318;31;33893;-69
2023/07/30 06:26:40;;;;;;;2.08;1.80;;;;;;;23.86;100.00;99923.72;5587151;31;33767;-69
2023/07/30 06:29:43;;;;;;;2.35;1.83;;;;;;;23.86;100.00;99929.12;5587032;31;33523;-69
2023/07/30 06:32:45;;;;;;;4.93;1.67;;;;;;;24.04;100.00;99920.53;5587164;31;34407;-69
2023/07/30 06:35:48;;;;;;;3.25;1.80;;;;;;;23.86;100.00;99922.91;5587125;31;33966;-69
2023/07/30 06:38:51;;;;;;;2.50;1.87;;;;;;;24.07;100.00;99924.56;5599144;31;33861;-70
2023/07/30 06:41:54;;;;;;;3.17;1.60;;;;;;;24.55;100.00;99926.84;5600807;31;34431;-70
2023/07/30 06:44:58;;;;;;;3.75;1.80;;;;;;;24.77;100.00;99925.78;5606792;31;33835;-69
2023/07/30 06:48:00;;;;;;;3.22;1.60;;;;;;;25.06;99.05;99918.75;5606864;31;33526;-70
2023/07/30 06:51:07;;;;;;;4.03;1.90;;;;;;;25.34;93.75;99926.28;5606808;31;33635;-69
2023/07/30 06:54:10;;;;;;;3.90;1.75;;;;;;;25.58;92.23;99929.22;5605848;31;34527;-69
2023/07/30 06:57:12;;;;;;;2.50;1.70;;;;;;;25.06;95.07;99924.16;5605942;31;33742;-69
2023/07/30 07:00:21;;;;;;;4.40;1.75;;;;;;;25.05;95.05;99923.34;5604663;31;34339;-70
2023/07/30 07:03:24;;;;;;;3.17;2.03;;;;;;;25.30;89.17;99925.22;5606491;31;33866;-69
2023/07/30 07:06:27;;;;;;;2.42;1.55;;;;;;;24.96;90.93;99921.47;5605603;31;33711;-69
2023/07/30 07:09:30;;;;;;;4.53;1.70;;;;;;;24.72;94.36;99923.06;5599063;31;34938;-70
2023/07/30 07:12:33;;;;;;;3.00;1.87;;;;;;;24.26;100.00;99920.31;5586703;31;34385;-69
2023/07/30 07:15:35;;;;;;;3.50;1.90;;;;;;;24.07;100.00;99924.56;5586873;31;33765;-69
2023/07/30 07:18:38;;;;;;;2.83;1.92;;;;;;;23.83;100.00;99935.88;5585889;31;34611;-69
2023/07/30 07:21:41;;;;;;;3.10;2.00;;;;;;;23.91;100.00;99950.00;5586865;31;33692;-68
2023/07/30 07:24:45;;;;;;;3.28;2.00;;;;;;;23.77;100.00;99960.50;5588762;31;34434;-69
2023/07/30 07:27:48;;;;;;;3.47;2.00;;;;;;;23.94;100.00;99968.44;5605034;31;33560;-69
2023/07/30 07:30:51;;;;;;;3.78;2.10;;;;;;;23.78;100.00;99964.84;5606214;31;34446;-69
2023/07/30 07:33:54;;;;;;;5.43;2.33;;;;;;;23.44;100.00;99974.38;5605740;31;33563;-70
2023/07/30 07:36:57;;;;;;;3.80;2.08;;;;;;;22.80;100.00;99982.59;5605475;31;33833;-71
2023/07/30 07:39:59;;;;;;;7.03;2.20;;;;;;;22.15;100.00;99986.22;5605566;31;34532;-71
2023/07/30 07:43:02;;;;;;;3.10;2.33;;;;;;;21.34;100.00;99982.44;5606215;31;34122;-72
2023/07/30 07:46:09;;;;;;;4.60;2.50;;;;;;;20.83;100.00;99988.88;5601774;31;139648;-72
2023/07/30 07:49:13;;;;;;;3.72;2.20;;;;;;;20.77;100.00;99998.75;5605952;31;33922;-72
2023/07/30 07:52:16;;;;;;;3.80;2.28;;;;;;;20.80;100.00;99992.87;5605879;31;34213;-71
2023/07/30 07:55:19;;;;;;;4.32;2.10;;;;;;;20.94;100.00;100000.66;5605830;31;32910;-71
2023/07/30 07:58:22;;;;;;;3.83;2.40;;;;;;;20.91;100.00;100010.06;5605695;31;34578;-71
2023/07/30 08:01:25;;;;;;;4.55;2.80;;;;;;;20.83;100.00;100005.88;5605534;31;35068;-70
2023/07/30 08:04:28;;;;;;;3.22;2.30;;;;;;;20.66;100.00;100001.53;5605303;31;33648;-72
2023/07/30 08:07:31;;;;;;;4.47;2.78;;;;;;;20.64;100.00;100012.53;5606251;31;34502;-71
2023/07/30 08:10:38;;;;;;;3.03;2.20;;;;;;;20.63;100.00;100016.28;5597700;31;34774;-72
2023/07/30 08:13:42;;;;;;;3.25;2.60;;;;;;;20.51;100.00;100029.00;5584485;31;34538;-71
2023/07/30 08:16:45;;;;;;;5.55;2.50;;;;;;;20.55;100.00;100024.78;5585844;31;33915;-71
2023/07/30 08:19:48;;;;;;;3.65;2.75;;;;;;;20.56;100.00;100022.91;5585651;31;34511;-70
2023/07/30 08:22:51;;;;;;;5.12;2.67;;;;;;;20.61;100.00;100026.50;5585626;31;33883;-71
2023/07/30 08:25:53;;;;;;;3.65;2.37;;;;;;;20.61;100.00;100033.78;5585674;31;33840;-72
2023/07/30 08:28:56;;;;;;;3.58;2.35;;;;;;;20.37;100.00;100019.59;5586200;31;33884;-73
2023/07/30 08:31:59;;;;;;;4.60;2.60;;;;;;;20.12;100.00;100032.50;5587341;31;34486;-73
2023/07/30 08:35:03;;;;;;;3.22;2.50;;;;;;;20.00;100.00;100037.91;5587856;31;33669;-75
2023/07/30 08:38:06;;;;;;;4.50;2.50;;;;;;;19.86;100.00;100042.75;5587429;31;33590;-74
2023/07/30 08:41:09;;;;;;;5.12;2.47;;;;;;;19.66;100.00;100030.69;5588001;31;34504;-74
2023/07/30 08:44:12;;;;;;;4.20;2.70;;;;;;;19.59;100.00;100040.78;5588038;31;33784;-73
2023/07/30 08:47:15;;;;;;;4.53;2.70;;;;;;;19.53;100.00;100043.34;5588006;31;34586;-72
2023/07/30 08:50:17;;;;;;;4.15;2.97;;;;;;;19.59;100.00;100046.16;5588212;31;33604;-73
2023/07/30 08:53:20;;;;;;;6.60;2.58;;;;;;;19.61;100.00;100041.34;5588326;31;33928;-74
2023/07/30 08:56:23;;;;;;;4.35;2.67;;;;;;;19.53;100.00;100039.84;5587105;31;33669;-74
2023/07/30 08:59:30;;;;;;;5.40;2.83;;;;;;;19.47;100.00;100040.78;5588081;31;34417;-74
2023/07/30 09:02:47;;;;;;;2.83;2.10;;;;;;;19.50;100.00;100026.87;5588449;31;34326;-73
2023/07/30 09:05:50;;;;;;;4.20;2.75;;;;;;;19.55;100.00;100045.81;5587922;31;34556;-73
2023/07/30 09:08:53;;;;;;;3.70;2.60;;;;;;;19.65;100.00;100031.78;5587928;31;33762;-73
2023/07/30 09:11:56;;;;;;;4.45;3.08;;;;;;;19.73;100.00;100031.41;5587958;31;33517;-73
2023/07/30 09:15:00;;;;;;;3.78;2.50;;;;;;;19.73;100.00;100029.53;5587918;31;33696;-72
2023/07/30 09:18:04;;;;;;;4.62;3.00;;;;;;;19.63;100.00;100040.06;5587177;31;33461;-72
2023/07/30 09:21:07;;;;;;;4.35;2.92;;;;;;;19.67;100.00;100035.03;5587945;31;33480;-72
2023/07/30 09:24:10;;;;;;;3.78;3.00;;;;;;;19.81;100.00;100036.44;5587798;31;33782;-72
2023/07/30 09:27:13;;;;;;;4.47;3.00;;;;;;;20.02;100.00;100026.91;5587718;31;34655;-72
2023/07/30 09:30:23;;;;;;;4.62;3.05;;;;;;;19.89;100.00;100038.78;5587648;31;33891;-72
2023/07/30 09:33:26;;;;;;;;;;;;;;;19.85;100.00;100035.72;5588027;31;34315;-72
2023/07/30 09:36:30;;;;;;;4.97;3.10;;;;;;;19.91;100.00;100023.19;5587901;31;33995;-72
2023/07/30 09:39:37;;;;;;;4.12;3.00;;;;;;;20.03;100.00;100020.47;5587036;31;34520;-72
2023/07/30 09:42:45;;;;;;;4.82;3.50;;;;;;;20.17;100.00;100032.63;5587690;31;34174;-73
2023/07/30 09:45:47;;;;;;;4.28;3.00;;;;;;;20.42;100.00;100032.34;5587476;31;34485;-73
2023/07/30 09:48:50;;;;;;;4.60;2.90;;;;;;;20.49;100.00;100033.00;5587519;31;34420;-73
2023/07/30 09:51:53;;;;;;;6.30;3.20;;;;;;;20.52;100.00;100032.53;5587650;31;33745;-72
2023/07/30 09:54:58;;;;;;;6.32;3.00;;;;;;;20.44;100.00;100031.03;5586780;31;33848;-72
2023/07/30 09:58:01;;;;;;;5.53;3.00;;;;;;;20.39;100.00;100023.66;5587638;31;33676;-73
2023/07/30 10:01:05;;;;;;;5.18;2.80;;;;;;;20.43;100.00;100025.91;5587701;31;34424;-72
2023/07/30 10:04:09;;;;;;;5.97;3.35;;;;;;;20.09;100.00;100020.31;5587496;31;33771;-73
2023/07/30 10:07:18;;;;;;;6.12;2.87;;;;;;;20.13;100.00;100021.50;5587375;31;33625;-74
2023/07/30 10:10:24;;;;;;;4.80;3.42;;;;;;;20.21;100.00;100034.59;5587475;31;33809;-73
2023/07/30 10:13:28;;;;;;;3.75;3.00;;;;;;;20.26;100.00;100039.25;5591694;31;34740;-72
2023/07/30 10:16:31;;;;;;;4.47;3.00;;;;;;;20.22;100.00;100030.84;5587896;31;33767;-73
2023/07/30 10:19:34;;;;;;;4.10;3.03;;;;;;;20.41;100.00;100028.81;5587471;31;33826;-73
2023/07/30 10:22:39;;;;;;;4.57;2.97;;;;;;;20.36;100.00;100021.47;5587471;31;33593;-73
2023/07/30 10:25:52;;;;;;;7.55;4.28;;;;;;;20.31;100.00;100034.81;5587420;31;33498;-73
2023/07/30 10:29:16;;;;;;;4.65;3.28;;;;;;;20.32;100.00;100039.16;5592527;31;33590;-72
2023/07/30 10:32:19;;;;;;;3.85;2.80;;;;;;;20.45;100.00;100032.66;5607105;31;33888;-73
2023/07/30 10:35:40;;;;;;;4.47;3.00;;;;;;;20.52;100.00;100037.91;5593124;31;34346;-72
2023/07/30 10:38:43;;;;;;;5.22;3.33;;;;;;;20.58;100.00;100029.66;5607252;31;33837;-73
2023/07/30 10:41:49;;;;;;;6.43;3.00;;;;;;;20.49;100.00;100031.13;5606925;31;34475;-72
2023/07/30 10:44:51;;;;;;;3.05;2.70;;;;;;;20.35;100.00;100033.28;5579818;31;34411;-72
2023/07/30 10:48:04;;;;;;;5.43;3.17;;;;;;;20.45;100.00;100026.44;5606960;31;33466;-72
2023/07/30 10:51:14;;;;;;;3.50;2.53;;;;;;;20.35;100.00;100027.91;5606755;31;34317;-71
2023/07/30 10:54:17;;;;;;;4.50;3.30;;;;;;;20.24;100.00;100027.91;5591917;31;33592;-71
2023/07/30 10:57:19;;;;;;;3.15;2.67;;;;;;;20.33;100.00;100008.44;5606583;31;33866;-72
2023/07/30 11:00:22;;;;;;;3.97;2.83;;;;;;;20.56;100.00;100018.34;5592704;31;33690;-71
2023/07/30 11:03:26;;;;;;;3.25;2.65;;;;;;;20.69;100.00;100009.94;5606537;31;34521;-72
2023/07/30 11:06:29;;;;;;;4.82;3.10;;;;;;;20.64;100.00;100017.09;5606700;31;34518;-72
2023/07/30 11:09:32;;;;;;;5.45;3.15;;;;;;;20.53;100.00;100008.00;5606936;31;34810;-71
2023/07/30 11:12:35;;;;;;;3.62;3.08;;;;;;;20.52;100.00;100002.87;5606558;31;34400;-72
2023/07/30 11:15:44;;;;;;;4.47;3.08;;;;;;;20.91;100.00;100007.34;5606620;31;34252;-72
2023/07/30 11:18:47;;;;;;;4.03;2.80;;;;;;;21.16;100.00;100005.09;5606667;31;33867;-71
2023/07/30 11:21:53;;;;;;;4.20;2.70;;;;;;;21.11;100.00;100009.53;5606715;31;33712;-72
2023/07/30 11:24:56;;;;;;;3.80;2.75;;;;;;;20.88;100.00;100001.62;5606453;31;33940;-72
2023/07/30 11:27:59;;;;;;;3.83;3.12;;;;;;;20.94;100.00;100012.25;5606490;31;33671;-71
2023/07/30 11:31:07;;;;;;;6.65;3.10;;;;;;;20.88;100.00;100013.22;5606501;31;33601;-71
2023/07/30 11:34:10;;;;;;;3.40;2.70;;;;;;;20.83;100.00;100011.25;5584984;31;33984;-72
2023/07/30 11:37:13;;;;;;;4.03;2.83;;;;;;;20.87;100.00;100018.84;5586902;31;34485;-72
2023/07/30 11:40:16;;;;;;;4.37;2.85;;;;;;;20.68;100.00;100023.66;5590252;31;34613;-72
2023/07/30 11:43:23;;;;;;;3.60;3.03;;;;;;;20.79;100.00;100030.84;5599205;31;33886;-71
2023/07/30 11:46:25;;;;;;;4.12;3.03;;;;;;;20.73;100.00;100021.88;5602613;31;33810;-72
2023/07/30 11:49:28;;;;;;;4.22;2.92;;;;;;;20.67;100.00;100020.13;5606163;31;34660;-72
2023/07/30 11:52:31;;;;;;;5.62;3.25;;;;;;;21.06;100.00;100014.84;5605245;31;34377;-71
2023/07/30 11:55:39;;;;;;;5.10;3.00;;;;;;;21.46;100.00;100006.59;5606447;31;33792;-71
2023/07/30 11:58:41;;;;;;;3.70;2.70;;;;;;;21.90;100.00;100011.00;5605968;31;34568;-71
2023/07/30 12:01:44;;;;;;;4.95;3.10;;;;;;;22.22;100.00;100013.06;5605962;31;34404;-72
2023/07/30 12:04:47;;;;;;;4.22;3.00;;;;;;;22.25;100.00;100012.53;5607443;31;33903;-72
2023/07/30 12:08:15;;;;;;;4.97;3.22;;;;;;;22.46;100.00;100009.00;5608111;31;33823;-71
2023/07/30 12:11:21;;;;;;;4.43;2.95;;;;;;;22.62;100.00;100012.66;5607338;31;35062;-71
2023/07/30 12:14:30;;;;;;;4.85;2.70;;;;;;;22.55;100.00;100010.19;5608274;31;33687;-71
2023/07/30 12:17:33;;;;;;;4.82;2.50;;;;;;;22.68;100.00;100017.88;5608698;31;32162;-72
2023/07/30 12:20:36;;;;;;;3.45;2.70;;;;;;;22.59;100.00;100019.41;5608440;31;33606;-72
2023/07/30 12:23:39;;;;;;;4.53;2.90;;;;;;;22.43;100.00;100002.19;5608485;31;35213;-70
2023/07/30 12:26:41;;;;;;;3.70;2.95;;;;;;;22.55;100.00;100010.19;5608037;31;34694;-72
2023/07/30 12:29:44;;;;;;;3.12;2.50;;;;;;;22.30;100.00;100012.59;5608080;31;33801;-70
2023/07/30 12:32:47;;;;;;;3.72;2.40;;;;;;;21.88;100.00;100010.44;5607799;31;33763;-71
2023/07/30 12:35:50;;;;;;;5.25;2.50;;;;;;;21.77;100.00;100010.56;5606953;31;33983;-69
2023/07/30 12:38:53;;;;;;;2.70;2.17;;;;;;;21.97;100.00;100006.28;5608026;31;33956;-70
2023/07/30 12:41:56;;;;;;;5.28;2.40;;;;;;;21.99;100.00;100014.13;5608061;31;33927;-70
2023/07/30 12:44:59;;;;;;;3.12;2.20;;;;;;;21.44;100.00;100004.19;5607851;31;34154;-72
2023/07/30 12:48:02;;;;;;;2.62;2.20;;;;;;;21.64;100.00;99993.66;5606854;31;34524;-73
2023/07/30 12:51:05;;;;;;;3.10;2.40;;;;;;;21.39;100.00;99979.00;5607926;31;33605;-74
2023/07/30 12:54:08;;;;;;;2.45;2.00;;;;;;;20.81;100.00;99985.63;5608193;31;34822;-73
2023/07/30 12:57:10;;;;;;;3.92;2.30;;;;;;;20.92;100.00;99976.63;5608034;31;34318;-73
2023/07/30 13:00:14;;;;;;;3.03;2.40;;;;;;;20.85;100.00;99975.97;5608051;31;33929;-72
2023/07/30 13:03:17;;;;;;;4.15;2.28;;;;;;;20.87;100.00;99964.91;5607890;31;34381;-72
2023/07/30 13:06:20;;;;;;;3.03;2.17;;;;;;;21.13;100.00;99967.81;5607772;31;35000;-71
2023/07/30 13:09:23;;;;;;;4.47;2.33;;;;;;;21.17;100.00;99962.75;5608063;31;33698;-69
2023/07/30 13:12:26;;;;;;;4.30;2.47;;;;;;;21.31;100.00;99963.22;5606796;31;33698;-69
2023/07/30 13:15:29;;;;;;;3.67;2.40;;;;;;;21.11;100.00;99961.81;5606784;31;34565;-71
2023/07/30 13:18:32;;;;;;;3.40;2.25;;;;;;;21.46;100.00;99941.84;5607639;31;33803;-70
2023/07/30 13:21:34;;;;;;;6.40;2.85;;;;;;;21.72;100.00;99943.00;5606615;31;34919;-70
2023/07/30 13:24:37;;;;;;;3.30;2.60;;;;;;;21.95;100.00;99945.47;5606772;31;33848;-69
2023/07/30 13:27:40;;;;;;;5.30;2.50;;;;;;;22.04;100.00;99933.97;5607607;31;33633;-71
2023/07/30 13:30:43;;;;;;;3.70;2.60;;;;;;;22.45;100.00;99935.19;5607552;31;33776;-68
2023/07/30 13:33:47;;;;;;;3.30;2.47;;;;;;;22.52;100.00;99924.16;5607437;31;33902;-69
2023/07/30 13:36:50;;;;;;;4.78;2.80;;;;;;;23.02;100.00;99922.97;5607237;31;34639;-70
2023/07/30 13:39:52;;;;;;;3.95;2.60;;;;;;;23.46;100.00;99915.41;5604194;31;33925;-69
2023/07/30 13:42:55;;;;;;;7.07;2.67;;;;;;;23.61;100.00;99918.19;5593815;31;33880;-71
2023/07/30 13:45:58;;;;;;;3.80;2.20;;;;;;;24.01;100.00;99915.63;5585503;31;33106;-68
2023/07/30 13:49:01;;;;;;;3.35;2.25;;;;;;;23.27;100.00;99910.41;5586762;31;34685;-69
2023/07/30 13:52:05;;;;;;;4.57;2.50;;;;;;;23.10;100.00;99911.66;5587679;31;33796;-68
2023/07/30 13:55:08;;;;;;;5.10;2.28;;;;;;;24.06;100.00;99901.28;5594693;31;33770;-71
2023/07/30 13:58:10;;;;;;;4.22;2.42;;;;;;;27.31;100.00;99904.34;5587485;31;32207;-68
2023/07/30 14:01:15;;;;;;;2.30;1.90;;;;;;;28.47;100.00;99897.34;5587746;31;33805;-70
2023/07/30 14:04:18;;;;;;;3.17;2.10;;;;;;;30.52;78.30;99900.16;5587527;31;34502;-69
2023/07/30 14:07:21;;;;;;;3.78;1.90;;;;;;;28.97;78.31;99900.38;5592021;31;34004;-69
2023/07/30 14:10:24;;;;;;;2.47;1.80;;;;;;;31.12;65.82;99895.06;5607461;31;33805;-69